sensor_id;sensor_type;location;lat;lon;timestamp;pressure;altitude;pressure_sealevel;temperature;humidity
54872;BME280;43914;57.680;11.982;2022-07-12T00:02:18;101212.23;;;14.35;67.06
54872;BME280;43914;57.680;11.982;2022-07-12T00:04:44;101213.45;;;14.33;67.18
54872;BME280;43914;57.680;11.982;2022-07-12T00:07:10;101212.81;;;14.31;67.44
54872;BME280;43914;57.680;11.982;2022-07-12T00:09:36;101209.61;;;14.31;67.76
54872;BME280;43914;57.680;11.982;2022-07-12T00:12:02;101215.02;;;14.31;67.72
54872;BME280;43914;57.680;11.982;2022-07-12T00:14:28;101211.14;;;14.29;67.91
54872;BME280;43914;57.680;11.982;2022-07-12T00:16:54;101209.28;;;14.30;68.20
54872;BME280;43914;57.680;11.982;2022-07-12T00:19:20;101213.45;;;14.33;68.24
54872;BME280;43914;57.680;11.982;2022-07-12T00:21:46;101212.81;;;14.31;68.22
54872;BME280;43914;57.680;11.982;2022-07-12T00:24:11;101212.89;;;14.26;68.09
54872;BME280;43914;57.680;11.982;2022-07-12T00:26:37;101214.45;;;14.25;68.12
54872;BME280;43914;57.680;11.982;2022-07-12T00:29:03;101210.80;;;14.22;68.31
54872;BME280;43914;57.680;11.982;2022-07-12T00:31:29;101213.19;;;14.21;68.25
54872;BME280;43914;57.680;11.982;2022-07-12T00:33:55;101215.22;;;14.19;68.18
54872;BME280;43914;57.680;11.982;2022-07-12T00:36:21;101212.41;;;14.16;68.45
54872;BME280;43914;57.680;11.982;2022-07-12T00:38:47;101209.71;;;14.16;68.67
54872;BME280;43914;57.680;11.982;2022-07-12T00:41:13;101212.09;;;14.15;69.04
54872;BME280;43914;57.680;11.982;2022-07-12T00:43:39;101207.50;;;14.16;69.14
54872;BME280;43914;57.680;11.982;2022-07-12T00:46:05;101214.16;;;14.13;69.37
54872;BME280;43914;57.680;11.982;2022-07-12T00:48:32;101214.02;;;14.10;69.40
54872;BME280;43914;57.680;11.982;2022-07-12T00:51:00;101215.31;;;14.04;69.81
54872;BME280;43914;57.680;11.982;2022-07-12T00:53:26;101204.02;;;13.93;70.30
54872;BME280;43914;57.680;11.982;2022-07-12T00:55:56;101212.19;;;14.00;70.61
54872;BME280;43914;57.680;11.982;2022-07-12T00:58:23;101208.31;;;13.98;70.89
54872;BME280;43914;57.680;11.982;2022-07-12T01:00:50;101207.57;;;13.94;70.99
54872;BME280;43914;57.680;11.982;2022-07-12T01:03:17;101209.42;;;13.93;71.47
54872;BME280;43914;57.680;11.982;2022-07-12T01:05:43;101206.29;;;13.90;71.58
54872;BME280;43914;57.680;11.982;2022-07-12T01:08:11;101223.19;;;13.88;71.52
54872;BME280;43914;57.680;11.982;2022-07-12T01:10:39;101215.86;;;13.81;71.86
54872;BME280;43914;57.680;11.982;2022-07-12T01:13:06;101221.87;;;13.77;72.08
54872;BME280;43914;57.680;11.982;2022-07-12T01:15:35;101222.69;;;13.77;72.58
54872;BME280;43914;57.680;11.982;2022-07-12T01:18:02;101229.66;;;13.76;72.73
54872;BME280;43914;57.680;11.982;2022-07-12T01:20:28;101226.63;;;13.75;72.90
54872;BME280;43914;57.680;11.982;2022-07-12T01:22:55;101226.81;;;13.73;72.86
54872;BME280;43914;57.680;11.982;2022-07-12T01:25:25;101223.25;;;13.73;73.10
54872;BME280;43914;57.680;11.982;2022-07-12T01:27:51;101220.77;;;13.71;73.13
54872;BME280;43914;57.680;11.982;2022-07-12T01:30:18;101223.33;;;13.68;73.00
54872;BME280;43914;57.680;11.982;2022-07-12T01:32:44;101221.55;;;13.65;73.13
54872;BME280;43914;57.680;11.982;2022-07-12T01:35:11;101223.61;;;13.63;73.12
54872;BME280;43914;57.680;11.982;2022-07-12T01:37:39;101222.97;;;13.61;73.42
54872;BME280;43914;57.680;11.982;2022-07-12T01:40:10;101225.66;;;13.61;73.59
54872;BME280;43914;57.680;11.982;2022-07-12T01:42:37;101226.37;;;13.59;73.59
54872;BME280;43914;57.680;11.982;2022-07-12T01:45:06;101224.88;;;13.56;73.66
54872;BME280;43914;57.680;11.982;2022-07-12T01:47:33;101224.80;;;13.49;73.81
54872;BME280;43914;57.680;11.982;2022-07-12T01:50:00;101233.23;;;13.50;74.21
54872;BME280;43914;57.680;11.982;2022-07-12T01:52:27;101232.41;;;13.50;74.33
54872;BME280;43914;57.680;11.982;2022-07-12T01:54:54;101230.20;;;13.49;74.38
54872;BME280;43914;57.680;11.982;2022-07-12T01:57:21;101233.11;;;13.48;74.39
54872;BME280;43914;57.680;11.982;2022-07-12T01:59:48;101231.13;;;13.41;74.43
54872;BME280;43914;57.680;11.982;2022-07-12T02:02:14;101232.03;;;13.38;74.51
54872;BME280;43914;57.680;11.982;2022-07-12T02:04:40;101229.84;;;13.37;74.53
54872;BME280;43914;57.680;11.982;2022-07-12T02:07:05;101242.69;;;13.35;74.64
54872;BME280;43914;57.680;11.982;2022-07-12T02:09:31;101240.52;;;13.35;74.73
54872;BME280;43914;57.680;11.982;2022-07-12T02:11:58;101253.38;;;13.33;74.85
54872;BME280;43914;57.680;11.982;2022-07-12T02:14:24;101244.81;;;13.29;75.00
54872;BME280;43914;57.680;11.982;2022-07-12T02:16:50;101248.03;;;13.28;75.15
54872;BME280;43914;57.680;11.982;2022-07-12T02:19:16;101251.44;;;13.26;75.04
54872;BME280;43914;57.680;11.982;2022-07-12T02:21:42;101245.10;;;13.19;75.15
54872;BME280;43914;57.680;11.982;2022-07-12T02:24:08;101242.08;;;13.18;75.36
54872;BME280;43914;57.680;11.982;2022-07-12T02:26:35;101243.48;;;13.14;75.33
54872;BME280;43914;57.680;11.982;2022-07-12T02:29:02;101243.70;;;13.12;75.45
54872;BME280;43914;57.680;11.982;2022-07-12T02:31:29;101246.89;;;13.12;75.38
54872;BME280;43914;57.680;11.982;2022-07-12T02:33:55;101239.34;;;13.07;75.39
54872;BME280;43914;57.680;11.982;2022-07-12T02:36:21;101245.92;;;13.09;75.57
54872;BME280;43914;57.680;11.982;2022-07-12T02:38:47;101240.20;;;13.08;75.56
54872;BME280;43914;57.680;11.982;2022-07-12T02:41:13;101238.53;;;13.07;75.61
54872;BME280;43914;57.680;11.982;2022-07-12T02:43:39;101234.80;;;13.08;75.72
54872;BME280;43914;57.680;11.982;2022-07-12T02:46:07;101240.00;;;13.09;76.00
54872;BME280;43914;57.680;11.982;2022-07-12T02:48:35;101244.84;;;13.14;76.07
54872;BME280;43914;57.680;11.982;2022-07-12T02:51:02;101244.66;;;13.16;76.14
54872;BME280;43914;57.680;11.982;2022-07-12T02:53:30;101245.31;;;13.18;76.46
54872;BME280;43914;57.680;11.982;2022-07-12T02:55:56;101241.70;;;13.21;76.72
54872;BME280;43914;57.680;11.982;2022-07-12T02:58:22;101250.65;;;13.22;76.89
54872;BME280;43914;57.680;11.982;2022-07-12T03:00:48;101250.44;;;13.23;76.99
54872;BME280;43914;57.680;11.982;2022-07-12T03:03:14;101255.19;;;13.21;76.99
54872;BME280;43914;57.680;11.982;2022-07-12T03:05:41;101251.67;;;13.21;77.09
54872;BME280;43914;57.680;11.982;2022-07-12T03:08:09;101257.39;;;13.22;77.31
54872;BME280;43914;57.680;11.982;2022-07-12T03:10:36;101252.17;;;13.20;77.20
54872;BME280;43914;57.680;11.982;2022-07-12T03:13:02;101246.77;;;13.20;77.36
54872;BME280;43914;57.680;11.982;2022-07-12T03:15:29;101252.81;;;13.22;77.97
54872;BME280;43914;57.680;11.982;2022-07-12T03:17:56;101254.95;;;13.27;78.42
54872;BME280;43914;57.680;11.982;2022-07-12T03:20:23;101259.80;;;13.32;78.70
54872;BME280;43914;57.680;11.982;2022-07-12T03:22:49;101253.38;;;13.33;78.75
54872;BME280;43914;57.680;11.982;2022-07-12T03:25:18;101259.74;;;13.36;78.71
54872;BME280;43914;57.680;11.982;2022-07-12T03:27:44;101258.51;;;13.38;79.21
54872;BME280;43914;57.680;11.982;2022-07-12T03:30:11;101250.84;;;13.46;79.89
54872;BME280;43914;57.680;11.982;2022-07-12T03:32:38;101259.52;;;13.52;79.87
54872;BME280;43914;57.680;11.982;2022-07-12T03:35:06;101255.08;;;13.55;79.88
54872;BME280;43914;57.680;11.982;2022-07-12T03:37:46;101261.09;;;13.62;80.00
54872;BME280;43914;57.680;11.982;2022-07-12T03:40:15;101259.80;;;13.68;80.85
54872;BME280;43914;57.680;11.982;2022-07-12T03:42:42;101262.18;;;13.78;80.64
54872;BME280;43914;57.680;11.982;2022-07-12T03:45:11;101261.80;;;13.81;80.04
54872;BME280;43914;57.680;11.982;2022-07-12T03:47:38;101262.36;;;13.88;79.74
54872;BME280;43914;57.680;11.982;2022-07-12T03:50:06;101255.03;;;13.92;79.82
54872;BME280;43914;57.680;11.982;2022-07-12T03:52:36;101257.91;;;14.02;79.98
54872;BME280;43914;57.680;11.982;2022-07-12T03:55:02;101255.60;;;14.09;80.36
54872;BME280;43914;57.680;11.982;2022-07-12T03:57:29;101252.56;;;14.19;80.99
54872;BME280;43914;57.680;11.982;2022-07-12T03:59:56;101251.67;;;14.23;80.61
54872;BME280;43914;57.680;11.982;2022-07-12T04:02:22;101255.65;;;14.27;80.42
54872;BME280;43914;57.680;11.982;2022-07-12T04:04:48;101256.07;;;14.31;79.46
54872;BME280;43914;57.680;11.982;2022-07-12T04:07:14;101253.50;;;14.33;78.89
54872;BME280;43914;57.680;11.982;2022-07-12T04:09:41;101257.30;;;14.39;78.81
54872;BME280;43914;57.680;11.982;2022-07-12T04:12:07;101255.47;;;14.46;78.92
54872;BME280;43914;57.680;11.982;2022-07-12T04:14:33;101259.68;;;14.55;79.49
54872;BME280;43914;57.680;11.982;2022-07-12T04:16:59;101262.22;;;14.64;80.11
54872;BME280;43914;57.680;11.982;2022-07-12T04:19:25;101266.81;;;14.74;80.37
54872;BME280;43914;57.680;11.982;2022-07-12T04:21:57;101265.47;;;14.81;80.38
54872;BME280;43914;57.680;11.982;2022-07-12T04:24:23;101274.80;;;14.89;80.40
54872;BME280;43914;57.680;11.982;2022-07-12T04:26:49;101273.78;;;14.97;80.22
54872;BME280;43914;57.680;11.982;2022-07-12T04:29:16;101281.63;;;15.03;80.07
54872;BME280;43914;57.680;11.982;2022-07-12T04:31:42;101280.00;;;15.08;80.10
54872;BME280;43914;57.680;11.982;2022-07-12T04:34:08;101279.38;;;15.13;80.16
54872;BME280;43914;57.680;11.982;2022-07-12T04:36:35;101275.48;;;15.22;80.19
54872;BME280;43914;57.680;11.982;2022-07-12T04:39:01;101266.03;;;15.29;80.30
54872;BME280;43914;57.680;11.982;2022-07-12T04:41:27;101268.11;;;15.34;80.42
54872;BME280;43914;57.680;11.982;2022-07-12T04:43:53;101268.23;;;15.43;80.49
54872;BME280;43914;57.680;11.982;2022-07-12T04:46:19;101267.13;;;15.48;80.53
54872;BME280;43914;57.680;11.982;2022-07-12T04:48:44;101266.81;;;15.54;80.62
54872;BME280;43914;57.680;11.982;2022-07-12T04:51:10;101266.20;;;15.58;80.35
54872;BME280;43914;57.680;11.982;2022-07-12T04:53:36;101261.85;;;15.64;80.38
54872;BME280;43914;57.680;11.982;2022-07-12T04:56:02;101249.75;;;15.67;80.27
54872;BME280;43914;57.680;11.982;2022-07-12T04:58:28;101252.98;;;15.73;80.00
54872;BME280;43914;57.680;11.982;2022-07-12T05:00:54;101248.53;;;15.76;79.97
54872;BME280;43914;57.680;11.982;2022-07-12T05:03:20;101250.92;;;15.82;79.81
54872;BME280;43914;57.680;11.982;2022-07-12T05:05:46;101248.25;;;15.89;80.00
54872;BME280;43914;57.680;11.982;2022-07-12T05:08:11;101254.73;;;15.94;79.81
54872;BME280;43914;57.680;11.982;2022-07-12T05:10:37;101253.59;;;15.99;79.60
54872;BME280;43914;57.680;11.982;2022-07-12T05:13:04;101258.67;;;16.05;79.51
54872;BME280;43914;57.680;11.982;2022-07-12T05:15:30;101261.08;;;16.11;79.43
54872;BME280;43914;57.680;11.982;2022-07-12T05:17:58;101260.78;;;16.17;79.42
54872;BME280;43914;57.680;11.982;2022-07-12T05:20:24;101265.98;;;16.25;79.36
54872;BME280;43914;57.680;11.982;2022-07-12T05:22:51;101267.66;;;16.33;79.10
54872;BME280;43914;57.680;11.982;2022-07-12T05:25:17;101261.19;;;16.40;79.06
54872;BME280;43914;57.680;11.982;2022-07-12T05:27:43;101259.30;;;16.48;78.93
54872;BME280;43914;57.680;11.982;2022-07-12T05:30:09;101259.60;;;16.55;78.92
54872;BME280;43914;57.680;11.982;2022-07-12T05:32:35;101271.78;;;16.62;78.82
54872;BME280;43914;57.680;11.982;2022-07-12T05:35:01;101273.98;;;16.69;78.69
54872;BME280;43914;57.680;11.982;2022-07-12T05:37:28;101267.70;;;16.76;78.68
54872;BME280;43914;57.680;11.982;2022-07-12T05:39:54;101261.61;;;16.80;78.54
54872;BME280;43914;57.680;11.982;2022-07-12T05:42:19;101257.33;;;16.88;78.53
54872;BME280;43914;57.680;11.982;2022-07-12T05:44:46;101265.86;;;16.92;78.35
54872;BME280;43914;57.680;11.982;2022-07-12T05:47:11;101271.61;;;17.00;78.26
54872;BME280;43914;57.680;11.982;2022-07-12T05:49:38;101274.31;;;17.07;78.18
54872;BME280;43914;57.680;11.982;2022-07-12T05:52:04;101265.19;;;17.10;78.04
54872;BME280;43914;57.680;11.982;2022-07-12T05:54:49;101270.61;;;17.17;78.13
54872;BME280;43914;57.680;11.982;2022-07-12T05:57:16;101267.63;;;17.25;77.81
54872;BME280;43914;57.680;11.982;2022-07-12T05:59:42;101266.23;;;17.39;77.74
54872;BME280;43914;57.680;11.982;2022-07-12T06:02:09;101264.78;;;17.52;77.47
54872;BME280;43914;57.680;11.982;2022-07-12T06:04:35;101263.67;;;17.67;77.24
54872;BME280;43914;57.680;11.982;2022-07-12T06:07:01;101246.84;;;17.77;76.62
54872;BME280;43914;57.680;11.982;2022-07-12T06:09:27;101251.66;;;17.91;76.01
54872;BME280;43914;57.680;11.982;2022-07-12T06:11:53;101254.34;;;17.97;75.61
54872;BME280;43914;57.680;11.982;2022-07-12T06:14:19;101256.00;;;17.98;74.89
54872;BME280;43914;57.680;11.982;2022-07-12T06:16:45;101258.16;;;17.89;74.11
54872;BME280;43914;57.680;11.982;2022-07-12T06:19:11;101258.43;;;17.81;73.95
54872;BME280;43914;57.680;11.982;2022-07-12T06:21:37;101259.72;;;17.79;74.15
54872;BME280;43914;57.680;11.982;2022-07-12T06:24:03;101246.44;;;17.80;74.33
54872;BME280;43914;57.680;11.982;2022-07-12T06:26:30;101249.92;;;17.87;74.43
54872;BME280;43914;57.680;11.982;2022-07-12T06:28:56;101239.73;;;17.92;74.20
54872;BME280;43914;57.680;11.982;2022-07-12T06:31:21;101242.03;;;17.95;74.05
54872;BME280;43914;57.680;11.982;2022-07-12T06:33:49;101248.83;;;17.95;73.88
54872;BME280;43914;57.680;11.982;2022-07-12T06:36:15;101246.22;;;17.91;73.56
54872;BME280;43914;57.680;11.982;2022-07-12T06:38:41;101245.61;;;17.88;73.57
54872;BME280;43914;57.680;11.982;2022-07-12T06:41:07;101245.85;;;17.87;73.63
54872;BME280;43914;57.680;11.982;2022-07-12T06:43:33;101250.07;;;17.83;73.48
54872;BME280;43914;57.680;11.982;2022-07-12T06:45:59;101252.83;;;17.76;73.31
54872;BME280;43914;57.680;11.982;2022-07-12T06:48:25;101250.11;;;17.60;73.64
54872;BME280;43914;57.680;11.982;2022-07-12T06:50:51;101250.11;;;17.60;73.64
54872;BME280;43914;57.680;11.982;2022-07-12T06:53:17;101259.08;;;17.60;73.59
54872;BME280;43914;57.680;11.982;2022-07-12T06:55:43;101259.39;;;17.62;74.05
54872;BME280;43914;57.680;11.982;2022-07-12T06:58:09;101254.02;;;17.71;74.05
54872;BME280;43914;57.680;11.982;2022-07-12T07:00:35;101245.48;;;17.77;73.81
54872;BME280;43914;57.680;11.982;2022-07-12T07:03:01;101242.25;;;17.77;73.63
54872;BME280;43914;57.680;11.982;2022-07-12T07:05:28;101246.64;;;17.78;73.71
54872;BME280;43914;57.680;11.982;2022-07-12T07:07:53;101242.73;;;17.83;73.80
54872;BME280;43914;57.680;11.982;2022-07-12T07:10:20;101244.05;;;17.90;73.61
54872;BME280;43914;57.680;11.982;2022-07-12T07:12:46;101245.27;;;17.94;73.55
54872;BME280;43914;57.680;11.982;2022-07-12T07:15:12;101241.66;;;18.00;73.73
54872;BME280;43914;57.680;11.982;2022-07-12T07:17:41;101234.53;;;18.06;73.57
54872;BME280;43914;57.680;11.982;2022-07-12T07:20:09;101234.94;;;18.10;73.31
54872;BME280;43914;57.680;11.982;2022-07-12T07:22:35;101233.94;;;18.13;72.91
54872;BME280;43914;57.680;11.982;2022-07-12T07:25:02;101229.45;;;18.26;72.94
54872;BME280;43914;57.680;11.982;2022-07-12T07:27:29;101221.14;;;18.39;72.86
54872;BME280;43914;57.680;11.982;2022-07-12T07:29:55;101235.45;;;18.53;72.14
54872;BME280;43914;57.680;11.982;2022-07-12T07:32:39;101233.94;;;18.57;72.03
54872;BME280;43914;57.680;11.982;2022-07-12T07:35:05;101248.91;;;18.67;71.99
54872;BME280;43914;57.680;11.982;2022-07-12T07:37:32;101248.91;;;18.67;71.39
54872;BME280;43914;57.680;11.982;2022-07-12T07:39:59;101240.06;;;18.71;71.66
54872;BME280;43914;57.680;11.982;2022-07-12T07:42:25;101234.91;;;18.82;71.93
54872;BME280;43914;57.680;11.982;2022-07-12T07:44:51;101243.61;;;18.91;71.74
54872;BME280;43914;57.680;11.982;2022-07-12T07:47:17;101241.73;;;18.91;70.84
54872;BME280;43914;57.680;11.982;2022-07-12T07:49:43;101244.98;;;18.81;70.67
54872;BME280;43914;57.680;11.982;2022-07-12T07:52:09;101242.12;;;18.76;70.85
54872;BME280;43914;57.680;11.982;2022-07-12T07:54:34;101243.85;;;18.70;70.87
54872;BME280;43914;57.680;11.982;2022-07-12T07:57:00;101236.74;;;18.69;70.90
54872;BME280;43914;57.680;11.982;2022-07-12T07:59:26;101257.45;;;18.80;70.52
54872;BME280;43914;57.680;11.982;2022-07-12T08:01:52;101247.63;;;18.79;69.74
54872;BME280;43914;57.680;11.982;2022-07-12T08:04:19;101247.77;;;18.84;69.61
54872;BME280;43914;57.680;11.982;2022-07-12T08:06:47;101246.05;;;18.80;69.69
54872;BME280;43914;57.680;11.982;2022-07-12T08:09:14;101250.50;;;18.74;69.56
54872;BME280;43914;57.680;11.982;2022-07-12T08:11:41;101251.41;;;18.68;69.34
54872;BME280;43914;57.680;11.982;2022-07-12T08:14:08;101251.93;;;18.58;68.92
54872;BME280;43914;57.680;11.982;2022-07-12T08:16:35;101248.66;;;18.50;69.06
54872;BME280;43914;57.680;11.982;2022-07-12T08:19:01;101242.61;;;18.48;69.34
54872;BME280;43914;57.680;11.982;2022-07-12T08:21:28;101247.91;;;18.52;69.58
54872;BME280;43914;57.680;11.982;2022-07-12T08:23:54;101245.37;;;18.57;69.63
54872;BME280;43914;57.680;11.982;2022-07-12T08:26:21;101254.75;;;18.61;69.63
54872;BME280;43914;57.680;11.982;2022-07-12T08:28:47;101255.80;;;18.69;69.76
54872;BME280;43914;57.680;11.982;2022-07-12T08:31:13;101261.70;;;18.75;69.70
54872;BME280;43914;57.680;11.982;2022-07-12T08:33:40;101257.61;;;18.75;69.63
54872;BME280;43914;57.680;11.982;2022-07-12T08:36:07;101254.43;;;18.79;69.67
54872;BME280;43914;57.680;11.982;2022-07-12T08:38:35;101257.40;;;18.77;69.95
54872;BME280;43914;57.680;11.982;2022-07-12T08:41:04;101272.95;;;18.70;69.87
54872;BME280;43914;57.680;11.982;2022-07-12T08:43:35;101269.41;;;18.60;70.05
54872;BME280;43914;57.680;11.982;2022-07-12T08:46:06;101266.00;;;18.55;70.40
54872;BME280;43914;57.680;11.982;2022-07-12T08:48:34;101272.74;;;18.62;70.56
54872;BME280;43914;57.680;11.982;2022-07-12T08:51:05;101264.79;;;18.60;70.10
54872;BME280;43914;57.680;11.982;2022-07-12T08:53:32;101269.78;;;18.64;70.09
54872;BME280;43914;57.680;11.982;2022-07-12T08:55:58;101265.78;;;18.57;70.13
54872;BME280;43914;57.680;11.982;2022-07-12T08:58:24;101262.73;;;18.56;70.32
54872;BME280;43914;57.680;11.982;2022-07-12T09:00:50;101263.06;;;18.57;70.51
54872;BME280;43914;57.680;11.982;2022-07-12T09:03:17;101250.48;;;18.56;70.62
54872;BME280;43914;57.680;11.982;2022-07-12T09:05:53;101251.72;;;18.60;70.72
54872;BME280;43914;57.680;11.982;2022-07-12T09:08:26;101258.67;;;18.65;71.04
54872;BME280;43914;57.680;11.982;2022-07-12T09:11:02;101255.50;;;18.68;71.02
54872;BME280;43914;57.680;11.982;2022-07-12T09:16:24;101262.75;;;18.74;70.88
54872;BME280;43914;57.680;11.982;2022-07-12T09:18:51;101264.56;;;18.81;70.96
54872;BME280;43914;57.680;11.982;2022-07-12T09:21:25;101265.10;;;18.89;70.79
54872;BME280;43914;57.680;11.982;2022-07-12T09:23:51;101272.99;;;18.98;70.31
54872;BME280;43914;57.680;11.982;2022-07-12T09:26:19;101262.61;;;18.97;69.96
54872;BME280;43914;57.680;11.982;2022-07-12T09:28:51;101266.27;;;19.00;70.13
54872;BME280;43914;57.680;11.982;2022-07-12T09:31:17;101267.17;;;19.03;69.82
54872;BME280;43914;57.680;11.982;2022-07-12T09:34:01;101260.50;;;19.09;69.62
54872;BME280;43914;57.680;11.982;2022-07-12T09:36:54;101259.50;;;19.22;69.52
54872;BME280;43914;57.680;11.982;2022-07-12T09:39:23;101267.77;;;19.24;69.28
54872;BME280;43914;57.680;11.982;2022-07-12T09:41:53;101260.48;;;19.18;69.15
54872;BME280;43914;57.680;11.982;2022-07-12T09:44:20;101255.36;;;19.19;69.30
54872;BME280;43914;57.680;11.982;2022-07-12T09:46:47;101259.06;;;19.15;69.00
54872;BME280;43914;57.680;11.982;2022-07-12T09:49:14;101259.44;;;19.10;68.74
54872;BME280;43914;57.680;11.982;2022-07-12T09:51:42;101266.02;;;19.02;68.95
54872;BME280;43914;57.680;11.982;2022-07-12T09:54:09;101256.27;;;19.03;69.28
54872;BME280;43914;57.680;11.982;2022-07-12T09:56:38;101260.58;;;19.02;69.14
54872;BME280;43914;57.680;11.982;2022-07-12T09:59:07;101259.04;;;18.97;69.27
54872;BME280;43914;57.680;11.982;2022-07-12T10:01:36;101247.48;;;18.92;69.48
54872;BME280;43914;57.680;11.982;2022-07-12T10:04:03;101252.17;;;18.94;69.77
54872;BME280;43914;57.680;11.982;2022-07-12T10:06:31;101246.18;;;18.95;69.65
54872;BME280;43914;57.680;11.982;2022-07-12T10:08:57;101238.48;;;19.01;69.85
54872;BME280;43914;57.680;11.982;2022-07-12T10:11:24;101245.54;;;18.99;69.94
54872;BME280;43914;57.680;11.982;2022-07-12T10:13:51;101237.88;;;18.99;70.02
54872;BME280;43914;57.680;11.982;2022-07-12T10:16:25;101240.45;;;19.03;70.25
54872;BME280;43914;57.680;11.982;2022-07-12T10:19:20;101245.38;;;19.03;70.30
54872;BME280;43914;57.680;11.982;2022-07-12T10:21:50;101239.47;;;19.07;70.57
54872;BME280;43914;57.680;11.982;2022-07-12T10:29:49;101235.66;;;19.26;70.24
54872;BME280;43914;57.680;11.982;2022-07-12T10:32:24;101233.37;;;19.32;69.83
54872;BME280;43914;57.680;11.982;2022-07-12T10:34:58;101235.41;;;19.37;69.44
54872;BME280;43914;57.680;11.982;2022-07-12T10:37:25;101228.30;;;19.36;69.57
54872;BME280;43914;57.680;11.982;2022-07-12T10:40:18;101232.87;;;19.45;69.79
54872;BME280;43914;57.680;11.982;2022-07-12T10:45:37;101223.14;;;19.58;69.77
54872;BME280;43914;57.680;11.982;2022-07-12T10:48:07;101223.57;;;19.65;68.81
54872;BME280;43914;57.680;11.982;2022-07-12T10:53:25;101231.36;;;19.70;66.67
54872;BME280;43914;57.680;11.982;2022-07-12T10:56:21;101222.03;;;19.69;65.97
54872;BME280;43914;57.680;11.982;2022-07-12T10:58:52;101212.39;;;19.75;66.20
54872;BME280;43914;57.680;11.982;2022-07-12T11:01:27;101212.41;;;19.87;66.52
54872;BME280;43914;57.680;11.982;2022-07-12T11:04:05;101206.04;;;19.94;66.41
54872;BME280;43914;57.680;11.982;2022-07-12T11:06:34;101207.05;;;20.02;65.65
54872;BME280;43914;57.680;11.982;2022-07-12T11:09:07;101212.33;;;20.18;66.83
54872;BME280;43914;57.680;11.982;2022-07-12T11:11:44;101214.06;;;20.33;66.10
54872;BME280;43914;57.680;11.982;2022-07-12T11:14:13;101199.48;;;20.42;65.40
54872;BME280;43914;57.680;11.982;2022-07-12T11:16:50;101200.14;;;20.47;65.20
54872;BME280;43914;57.680;11.982;2022-07-12T11:19:21;101199.55;;;20.57;64.00
54872;BME280;43914;57.680;11.982;2022-07-12T11:21:48;101194.15;;;20.59;63.20
54872;BME280;43914;57.680;11.982;2022-07-12T11:24:18;101186.35;;;20.66;62.84
54872;BME280;43914;57.680;11.982;2022-07-12T11:26:45;101187.69;;;20.78;62.47
54872;BME280;43914;57.680;11.982;2022-07-12T11:29:12;101196.59;;;20.85;61.90
54872;BME280;43914;57.680;11.982;2022-07-12T11:31:38;101196.11;;;20.88;61.13
54872;BME280;43914;57.680;11.982;2022-07-12T11:34:04;101192.76;;;20.98;61.20
54872;BME280;43914;57.680;11.982;2022-07-12T11:36:31;101195.97;;;21.09;59.69
54872;BME280;43914;57.680;11.982;2022-07-12T11:38:59;101193.23;;;21.09;59.20
54872;BME280;43914;57.680;11.982;2022-07-12T11:41:28;101192.66;;;21.07;57.21
54872;BME280;43914;57.680;11.982;2022-07-12T11:43:54;101180.94;;;21.09;57.83
54872;BME280;43914;57.680;11.982;2022-07-12T11:46:20;101180.53;;;21.17;58.16
54872;BME280;43914;57.680;11.982;2022-07-12T11:48:45;101189.76;;;21.28;57.63
54872;BME280;43914;57.680;11.982;2022-07-12T11:51:12;101176.09;;;21.28;55.94
54872;BME280;43914;57.680;11.982;2022-07-12T11:53:39;101184.06;;;21.30;55.54
54872;BME280;43914;57.680;11.982;2022-07-12T11:56:07;101178.04;;;21.30;55.33
54872;BME280;43914;57.680;11.982;2022-07-12T11:58:35;101192.09;;;21.37;55.12
54872;BME280;43914;57.680;11.982;2022-07-12T12:01:04;101188.97;;;21.45;54.83
54872;BME280;43914;57.680;11.982;2022-07-12T12:03:41;101189.22;;;21.60;54.48
54872;BME280;43914;57.680;11.982;2022-07-12T12:06:11;101190.02;;;21.73;53.39
54872;BME280;43914;57.680;11.982;2022-07-12T12:08:37;101188.75;;;21.81;53.37
54872;BME280;43914;57.680;11.982;2022-07-12T12:11:03;101191.33;;;21.87;52.20
54872;BME280;43914;57.680;11.982;2022-07-12T12:13:30;101189.53;;;21.96;51.59
54872;BME280;43914;57.680;11.982;2022-07-12T12:16:01;101189.42;;;22.05;51.18
54872;BME280;43914;57.680;11.982;2022-07-12T12:18:37;101187.91;;;22.14;51.22
54872;BME280;43914;57.680;11.982;2022-07-12T12:21:06;101201.52;;;22.29;49.89
54872;BME280;43914;57.680;11.982;2022-07-12T12:23:35;101199.40;;;22.33;48.87
54872;BME280;43914;57.680;11.982;2022-07-12T12:26:17;101199.89;;;22.47;49.64
54872;BME280;43914;57.680;11.982;2022-07-12T12:28:48;101191.09;;;22.65;50.07
54872;BME280;43914;57.680;11.982;2022-07-12T12:31:20;101191.59;;;22.84;48.99
54872;BME280;43914;57.680;11.982;2022-07-12T12:33:52;101188.20;;;22.99;48.79
54872;BME280;43914;57.680;11.982;2022-07-12T12:36:25;101188.91;;;23.17;47.34
54872;BME280;43914;57.680;11.982;2022-07-12T12:39:02;101186.33;;;23.27;47.41
54872;BME280;43914;57.680;11.982;2022-07-12T12:41:29;101182.62;;;23.41;46.51
54872;BME280;43914;57.680;11.982;2022-07-12T12:44:04;101181.16;;;23.63;46.45
54872;BME280;43914;57.680;11.982;2022-07-12T12:46:52;101171.09;;;23.74;45.79
54872;BME280;43914;57.680;11.982;2022-07-12T12:49:43;101175.58;;;23.88;46.20
54872;BME280;43914;57.680;11.982;2022-07-12T12:52:14;101178.20;;;24.08;45.42
54872;BME280;43914;57.680;11.982;2022-07-12T12:54:40;101185.16;;;24.26;45.31
54872;BME280;43914;57.680;11.982;2022-07-12T12:57:07;101175.30;;;24.30;44.62
54872;BME280;43914;57.680;11.982;2022-07-12T12:59:34;101169.31;;;24.41;44.84